Flight Track Log - Related Links

Times and Time Zones

All times are in EDT time to prevent confusion due to time zone crossing. See the CPT1940 flight status page for this flight to view local times or setup timezone preferences in your user account.

Time Position Orientation Groundspeed Altitude Reporting Facility
EDT Latitude Longitude Course Direction KTS MPH feet Rate Location/Type
Thu 01:19:09 PM 42.9522 -106.3892 83° East 132 152 7,700  Level Denver Center
Thu 01:20:12 PM 42.9503 -106.3425 93° East 132 152 8,200 528 Climbing Denver Center
Thu 01:21:14 PM 42.9450 -106.2875 97° East 131 151 8,800 387 Climbing Denver Center
Thu 01:22:00 PM 43.0570 -106.1977 118° Southeast  Level FlightAware Approximate
Thu 01:22:16 PM 42.9417 -106.2378 95° East 134 154 9,000  Level Denver Center
Thu 01:23:00 PM 43.0350 -106.1404 118° Southeast  Level FlightAware Approximate
Thu 01:23:18 PM 42.9375 -106.1692 95° East 152 175 9,000  Level Denver Center
Thu 01:24:20 PM 42.9353 -106.1075 93° East 164 189 9,000  Level Denver Center
Thu 01:25:22 PM 42.9311 -106.0467 95° East 168 193 9,000  Level Denver Center
Thu 01:26:24 PM 42.9275 -105.9769 94° East 167 192 9,000  Level Denver Center
Thu 01:27:26 PM 42.9247 -105.9211 94° East 160 184 9,000  Level Denver Center
Thu 01:28:28 PM 42.9217 -105.8561 94° East 156 180 9,000  Level Denver Center
Thu 01:29:30 PM 42.9119 -105.8017 104° East 155 178 9,000  Level Denver Center
Thu 01:30:32 PM 42.8911 -105.7425 116° Southeast 154 177 9,000  Level Denver Center
Thu 01:31:34 PM 42.8739 -105.6925 115° Southeast 154 177 9,000  Level Denver Center
Thu 01:32:36 PM 42.8539 -105.6333 115° Southeast 153 176 9,000  Level Denver Center
Thu 01:33:38 PM 42.8369 -105.5811 114° Southeast 155 178 9,000  Level Denver Center
Thu 01:34:40 PM 42.8178 -105.5211 114° Southeast 155 178 9,000  Level Denver Center
Thu 01:35:42 PM 42.8006 -105.4697 115° Southeast 156 180 9,000  Level Denver Center
Thu 01:36:44 PM 42.7814 -105.4092 113° Southeast 156 180 9,000  Level Denver Center
Thu 01:37:46 PM 42.7650 -105.3583 114° Southeast 155 178 9,000  Level Denver Center
Thu 01:38:48 PM 42.7458 -105.2981 113° Southeast 155 178 9,000  Level Denver Center
Thu 01:39:51 PM 42.7294 -105.2472 114° Southeast 154 177 9,000  Level Denver Center
Thu 01:40:53 PM 42.7094 -105.1872 114° Southeast 155 178 9,000  Level Denver Center
Thu 01:41:55 PM 42.6925 -105.1361 114° Southeast 155 178 9,000  Level Denver Center
Thu 01:42:57 PM 42.6728 -105.0769 114° Southeast 155 178 9,000  Level Denver Center
Thu 01:43:59 PM 42.6556 -105.0256 114° Southeast 155 178 9,000  Level Denver Center
Thu 01:45:01 PM 42.6386 -104.9747 114° Southeast 155 178 9,000  Level Denver Center
Thu 01:46:03 PM 42.6189 -104.9147 114° Southeast 156 180 9,000  Level Denver Center
Thu 01:47:05 PM 42.6019 -104.8636 114° Southeast 155 178 9,000  Level Denver Center
Thu 01:48:07 PM 42.5825 -104.8033 114° Southeast 157 181 9,000  Level Denver Center
Thu 01:49:09 PM 42.5656 -104.7536 115° Southeast 155 178 9,000 48 Level Denver Center
Thu 01:50:11 PM 42.5456 -104.6950 115° Southeast 154 177 9,100 48 Climbing Denver Center
Thu 01:51:13 PM 42.5283 -104.6442 115° Southeast 155 178 9,100  Level Denver Center
Thu 01:52:15 PM 42.5061 -104.5875 118° Southeast 155 178 9,100  Level Denver Center
Thu 01:53:17 PM 42.4733 -104.5383 132° Southeast 158 182 9,100  Level Denver Center
Thu 01:54:19 PM 42.4467 -104.4961 131° Southeast 157 181 9,100  Level Denver Center
Thu 01:55:22 PM 42.4147 -104.4464 131° Southeast 156 180 9,100  Level Denver Center
Thu 01:56:24 PM 42.3878 -104.4044 131° Southeast 155 178 9,100  Level Denver Center
Thu 01:57:26 PM 42.3572 -104.3550 130° Southeast 155 178 9,100  Level Denver Center
Thu 01:58:28 PM 42.3308 -104.3128 130° Southeast 154 177 9,100 -48 Level Denver Center
Thu 01:59:30 PM 42.3039 -104.2697 130° Southeast 155 178 9,000 -290 Descending Denver Center
Thu 02:00:32 PM 42.2689 -104.2178 132° Southeast 162 186 8,500 -387 Descending Denver Center
Thu 02:01:34 PM 42.2381 -104.1706 131° Southeast 169 194 8,200 -194 Descending Denver Center
Thu 02:02:36 PM 42.2047 -104.1181 131° Southeast 168 193 8,100 -48 Descending Denver Center
Thu 02:03:38 PM 42.1803 -104.0750 127° Southeast 159 183 8,100  Level Denver Center
Thu 02:04:40 PM 42.1506 -104.0278 130° Southeast 152 175 8,100  Level Denver Center
Thu 02:05:42 PM 42.1250 -103.9872 130° Southeast 149 171 8,100  Level Denver Center
Thu 02:06:44 PM 42.0958 -103.9386 129° Southeast 150 173 8,100  Level Denver Center
Thu 02:07:46 PM 42.0697 -103.8986 131° Southeast 150 173 8,100  Level Denver Center

Login

Don't have an account? Register now (free) for customized features, flight alerts, and more!